Time;durP1;ratioP1;P1;durP2;ratioP2;P2;SDS_P1;SDS_P2;PMS_P1;PMS_P2;Temp;Humidity;BMP_temperature;BMP_pressure;BME280_temperature;BME280_humidity;BME280_pressure;Samples;Min_cycle;Max_cycle;Signal;HPM_P1;HPM_P2
2022/05/15 00:01:22;;;;;;;0.40;0.40;;;15.20;99.90;;;;;;5090288;28;20443;-68
2022/05/15 00:03:48;;;;;;;0.40;0.20;;;15.10;99.90;;;;;;5089324;28;20429;-68
2022/05/15 00:06:14;;;;;;;0.40;0.20;;;15.10;99.90;;;;;;5087280;28;20448;-68
2022/05/15 00:08:40;;;;;;;0.40;0.20;;;15.20;99.90;;;;;;5085834;28;20386;-68
2022/05/15 00:11:09;;;;;;;0.50;0.50;;;15.20;99.90;;;;;;5091010;28;20781;-69
2022/05/15 00:13:36;;;;;;;0.50;0.50;;;15.20;99.90;;;;;;5081877;28;20565;-68
2022/05/15 00:16:02;;;;;;;0.40;0.20;;;15.20;99.90;;;;;;5084412;28;20449;-68
2022/05/15 00:18:28;;;;;;;0.50;0.50;;;15.30;99.90;;;;;;5090855;28;20484;-68
2022/05/15 00:20:54;;;;;;;0.40;0.30;;;15.20;99.90;;;;;;5090056;28;20966;-68
2022/05/15 00:23:22;;;;;;;0.90;0.70;;;15.10;99.90;;;;;;5075733;28;20480;-67
2022/05/15 00:25:48;;;;;;;0.40;0.30;;;15.10;99.90;;;;;;5089794;28;20970;-68
2022/05/15 00:28:14;;;;;;;0.40;0.20;;;15.10;99.90;;;;;;5085410;28;20402;-68
2022/05/15 00:30:41;;;;;;;0.40;0.20;;;15.10;99.90;;;;;;5085701;28;20489;-68
2022/05/15 00:33:06;;;;;;;0.40;0.20;;;15.00;99.90;;;;;;5089725;28;20420;-68
2022/05/15 00:35:35;;;;;;;0.40;0.20;;;15.10;99.90;;;;;;5088671;28;20382;-68
2022/05/15 00:38:05;;;;;;;0.40;0.20;;;14.90;99.90;;;;;;5090401;28;20399;-69
2022/05/15 00:40:31;;;;;;;0.40;0.20;;;14.90;99.90;;;;;;5090167;28;20719;-69
2022/05/15 00:42:57;;;;;;;0.80;0.80;;;14.80;99.90;;;;;;5083997;28;20415;-68
2022/05/15 00:45:23;;;;;;;0.40;0.20;;;14.80;99.90;;;;;;5080946;28;20409;-68
2022/05/15 00:47:49;;;;;;;0.40;0.30;;;14.90;99.90;;;;;;5085093;28;20389;-68
2022/05/15 00:50:20;;;;;;;0.50;0.50;;;14.80;99.90;;;;;;5089716;28;20417;-68
2022/05/15 00:52:51;;;;;;;0.40;0.20;;;14.80;99.90;;;;;;5089019;28;20408;-68
2022/05/15 00:55:24;;;;;;;0.40;0.30;;;14.70;99.90;;;;;;5089597;28;20429;-68
2022/05/15 00:57:58;;;;;;;1.10;0.70;;;14.70;99.90;;;;;;5089264;28;20408;-68
2022/05/15 01:00:26;;;;;;;0.40;0.20;;;14.70;99.90;;;;;;5089341;28;20776;-68
2022/05/15 01:03:00;;;;;;;0.40;0.20;;;14.60;99.90;;;;;;5088491;28;20757;-68
2022/05/15 01:05:25;;;;;;;0.40;0.40;;;14.70;99.90;;;;;;5089587;28;20858;-68
2022/05/15 01:07:52;;;;;;;0.40;0.20;;;14.60;99.90;;;;;;5089591;28;20382;-68
2022/05/15 01:10:18;;;;;;;0.43;0.28;;;14.70;99.90;;;;;;5089741;28;20445;-68
2022/05/15 01:12:44;;;;;;;0.40;0.30;;;14.70;99.90;;;;;;5089437;28;20417;-68
2022/05/15 01:15:14;;;;;;;0.40;0.20;;;14.70;99.90;;;;;;5090225;28;20401;-68
2022/05/15 01:17:43;;;;;;;0.40;0.20;;;14.70;99.90;;;;;;5089246;28;20414;-68
2022/05/15 01:20:14;;;;;;;0.40;0.20;;;14.70;99.90;;;;;;5090082;28;20402;-68
2022/05/15 01:22:40;;;;;;;0.40;0.30;;;14.60;99.90;;;;;;5089874;28;20366;-69
2022/05/15 01:25:24;;;;;;;0.40;0.30;;;14.60;99.90;;;;;;5090354;28;20512;-69
2022/05/15 01:28:13;;;;;;;0.40;0.30;;;14.50;99.90;;;;;;5088887;28;20508;-68
2022/05/15 01:30:43;;;;;;;0.40;0.20;;;14.60;99.90;;;;;;5088147;28;20718;-68
2022/05/15 01:33:09;;;;;;;0.40;0.20;;;14.60;99.90;;;;;;5090264;28;20420;-69
2022/05/15 01:35:35;;;;;;;0.40;0.20;;;14.60;99.90;;;;;;5090263;28;20390;-68
2022/05/15 01:38:02;;;;;;;0.40;0.20;;;14.50;99.90;;;;;;5088567;28;20432;-68
2022/05/15 01:40:27;;;;;;;0.40;0.20;;;14.40;99.90;;;;;;5090027;28;20401;-68
2022/05/15 01:42:53;;;;;;;0.40;0.30;;;14.20;99.90;;;;;;5088511;28;20386;-68
2022/05/15 01:45:20;;;;;;;0.40;0.20;;;14.10;99.90;;;;;;5091176;28;20797;-68
2022/05/15 01:47:46;;;;;;;0.40;0.20;;;14.10;99.90;;;;;;5092790;28;20401;-68
2022/05/15 01:50:14;;;;;;;0.40;0.20;;;14.20;99.90;;;;;;5093210;28;20402;-68
2022/05/15 01:52:40;;;;;;;0.40;0.30;;;14.20;99.90;;;;;;5092834;28;20492;-69
2022/05/15 01:55:06;;;;;;;0.40;0.30;;;14.00;99.90;;;;;;5093493;28;20389;-68
2022/05/15 01:57:32;;;;;;;0.40;0.20;;;13.90;99.90;;;;;;5093252;28;20427;-68
2022/05/15 01:59:58;;;;;;;0.60;0.50;;;13.80;99.90;;;;;;5092776;28;20393;-68
2022/05/15 02:02:24;;;;;;;0.40;0.30;;;13.80;99.90;;;;;;5093198;28;20410;-68
2022/05/15 02:04:49;;;;;;;0.40;0.20;;;13.80;99.90;;;;;;5092975;28;20421;-68
2022/05/15 02:07:15;;;;;;;0.40;0.20;;;13.80;99.90;;;;;;5092802;28;20397;-68
2022/05/15 02:09:41;;;;;;;0.40;0.30;;;13.70;99.90;;;;;;5092707;28;20386;-68
2022/05/15 02:12:07;;;;;;;3.10;0.70;;;13.60;99.90;;;;;;5093095;28;20907;-68
2022/05/15 02:14:34;;;;;;;0.40;0.20;;;13.50;99.90;;;;;;5093341;28;20383;-68
2022/05/15 02:16:59;;;;;;;0.40;0.30;;;13.60;99.90;;;;;;5091993;28;20474;-68
2022/05/15 02:19:25;;;;;;;0.40;0.20;;;13.50;99.90;;;;;;5092468;28;20881;-69
2022/05/15 02:21:50;;;;;;;0.40;0.20;;;13.40;99.90;;;;;;5091989;28;20394;-68
2022/05/15 02:24:16;;;;;;;0.50;0.50;;;13.40;99.90;;;;;;5093537;28;20409;-68
2022/05/15 02:26:42;;;;;;;0.40;0.20;;;13.40;99.90;;;;;;5092538;28;20382;-68
2022/05/15 02:29:08;;;;;;;0.40;0.20;;;13.30;99.90;;;;;;5092297;28;20400;-68
2022/05/15 02:31:34;;;;;;;0.40;0.20;;;13.30;99.90;;;;;;5092948;28;20488;-68
2022/05/15 02:34:00;;;;;;;0.40;0.20;;;13.40;99.90;;;;;;5091441;28;21013;-68
2022/05/15 02:36:27;;;;;;;0.50;0.40;;;13.30;99.90;;;;;;5092600;28;20394;-68
2022/05/15 02:38:53;;;;;;;0.50;0.50;;;13.10;99.90;;;;;;5090954;28;20382;-68
2022/05/15 02:41:18;;;;;;;0.40;0.20;;;13.10;99.90;;;;;;5092425;28;20413;-67
2022/05/15 02:43:44;;;;;;;0.40;0.30;;;13.20;99.90;;;;;;5091516;28;20435;-68
2022/05/15 02:46:10;;;;;;;0.40;0.20;;;13.20;99.90;;;;;;5092996;28;20439;-67
2022/05/15 02:51:20;;;;;;;0.40;0.20;;;13.20;99.90;;;;;;5091949;28;20497;-67
2022/05/15 02:53:46;;;;;;;0.40;0.40;;;13.10;99.90;;;;;;5091588;28;20390;-67
2022/05/15 02:56:13;;;;;;;0.40;0.40;;;13.20;99.90;;;;;;5092799;28;20395;-68
2022/05/15 02:58:39;;;;;;;0.50;0.50;;;13.00;99.90;;;;;;5091285;28;20405;-68
2022/05/15 03:01:05;;;;;;;0.40;0.30;;;12.90;99.90;;;;;;5072837;28;20398;-67
2022/05/15 03:03:31;;;;;;;0.40;0.20;;;12.80;99.90;;;;;;5092214;28;20432;-67
2022/05/15 03:05:57;;;;;;;0.40;0.20;;;12.80;99.90;;;;;;5090989;28;20418;-67
2022/05/15 03:08:23;;;;;;;0.40;0.20;;;12.90;99.90;;;;;;5092342;28;20394;-68
2022/05/15 03:10:49;;;;;;;0.40;0.40;;;12.80;99.90;;;;;;5091319;28;20483;-67
2022/05/15 03:13:14;;;;;;;0.40;0.20;;;12.80;99.90;;;;;;5092231;28;20421;-67
2022/05/15 03:15:41;;;;;;;0.40;0.20;;;12.70;99.90;;;;;;5092266;28;20477;-67
2022/05/15 03:18:07;;;;;;;0.40;0.20;;;12.60;99.90;;;;;;5086207;28;20486;-67
2022/05/15 03:20:33;;;;;;;1.00;1.00;;;12.70;99.90;;;;;;5082417;28;20476;-67
2022/05/15 03:22:59;;;;;;;0.40;0.20;;;12.70;99.90;;;;;;5091013;28;20738;-67
2022/05/15 03:25:27;;;;;;;0.40;0.20;;;12.70;99.90;;;;;;5091480;28;20398;-67
2022/05/15 03:27:54;;;;;;;0.40;0.22;;;12.70;99.90;;;;;;5089624;28;20486;-67
2022/05/15 03:30:20;;;;;;;0.40;0.30;;;12.70;99.90;;;;;;5091610;28;20422;-67
2022/05/15 03:32:46;;;;;;;0.40;0.30;;;12.60;99.90;;;;;;5091336;28;20771;-68
2022/05/15 03:35:14;;;;;;;0.40;0.40;;;12.50;99.90;;;;;;5091805;28;20477;-67
2022/05/15 03:37:41;;;;;;;0.40;0.30;;;12.50;99.90;;;;;;5092052;28;20436;-67
2022/05/15 03:40:08;;;;;;;0.40;0.20;;;12.40;99.90;;;;;;5091111;28;20451;-67
2022/05/15 03:42:34;;;;;;;0.40;0.25;;;12.40;99.90;;;;;;5091559;28;20409;-68
2022/05/15 03:45:02;;;;;;;0.40;0.20;;;12.30;99.90;;;;;;5091014;28;20402;-67
2022/05/15 03:47:28;;;;;;;0.40;0.30;;;12.40;99.90;;;;;;5090721;28;20475;-68
2022/05/15 03:49:54;;;;;;;0.40;0.20;;;12.40;99.90;;;;;;5090471;28;20433;-68
2022/05/15 03:52:21;;;;;;;0.40;0.40;;;12.50;99.90;;;;;;5091589;28;20394;-68
2022/05/15 03:54:47;;;;;;;0.40;0.30;;;12.50;99.90;;;;;;5091464;28;20390;-68
2022/05/15 03:57:13;;;;;;;0.40;0.30;;;12.40;99.90;;;;;;5090738;28;20731;-67
2022/05/15 03:59:41;;;;;;;0.50;0.50;;;12.40;99.90;;;;;;5091450;28;20900;-67
2022/05/15 04:02:09;;;;;;;0.40;0.20;;;12.40;99.90;;;;;;5090007;28;20382;-68
2022/05/15 04:04:35;;;;;;;0.40;0.30;;;12.40;99.90;;;;;;5090996;28;20394;-68
2022/05/15 04:07:02;;;;;;;0.40;0.22;;;12.40;99.90;;;;;;5090423;28;20382;-69
2022/05/15 04:09:30;;;;;;;0.50;0.50;;;12.30;99.90;;;;;;5090871;28;20773;-68
2022/05/15 04:11:56;;;;;;;0.40;0.30;;;12.30;99.90;;;;;;5090334;28;20493;-68
2022/05/15 04:14:21;;;;;;;0.40;0.20;;;12.40;99.90;;;;;;5091050;28;20443;-68
2022/05/15 04:16:47;;;;;;;0.40;0.20;;;12.40;99.90;;;;;;5090476;28;20769;-68
2022/05/15 04:19:13;;;;;;;0.40;0.30;;;12.40;99.90;;;;;;5090408;28;20401;-68
2022/05/15 04:21:40;;;;;;;0.40;0.40;;;12.40;99.90;;;;;;5091126;28;20394;-68
2022/05/15 04:24:11;;;;;;;0.40;0.20;;;12.40;99.90;;;;;;5089799;28;20887;-68
2022/05/15 04:26:38;;;;;;;0.40;0.20;;;12.30;99.90;;;;;;5090654;28;20475;-68
2022/05/15 04:29:05;;;;;;;0.40;0.40;;;12.60;99.90;;;;;;5086878;28;20909;-68
2022/05/15 04:31:31;;;;;;;0.40;0.20;;;12.50;99.90;;;;;;5090276;28;20482;-68
2022/05/15 04:33:56;;;;;;;0.40;0.40;;;12.50;99.90;;;;;;5089296;28;20481;-68
2022/05/15 04:36:23;;;;;;;0.40;0.20;;;12.50;99.90;;;;;;5090918;28;20383;-68
2022/05/15 04:38:49;;;;;;;0.40;0.20;;;12.40;99.90;;;;;;5090850;28;20471;-68
2022/05/15 04:41:14;;;;;;;0.40;0.20;;;12.50;99.90;;;;;;5090288;28;20515;-68
2022/05/15 04:43:40;;;;;;;0.40;0.20;;;12.60;99.90;;;;;;5090269;28;20965;-68
2022/05/15 04:46:07;;;;;;;0.40;0.20;;;12.60;99.90;;;;;;5090156;28;20797;-68
2022/05/15 04:48:36;;;;;;;0.40;0.20;;;12.60;99.90;;;;;;5090314;28;20866;-68
2022/05/15 04:51:03;;;;;;;0.40;0.20;;;12.70;99.90;;;;;;5089256;28;20406;-68
2022/05/15 04:53:29;;;;;;;1.30;0.70;;;12.80;99.90;;;;;;5090785;28;20390;-68
2022/05/15 04:55:55;;;;;;;0.40;0.30;;;12.70;99.90;;;;;;5089193;28;20770;-68
2022/05/15 04:58:21;;;;;;;0.40;0.20;;;13.00;99.90;;;;;;5090064;28;20390;-68
2022/05/15 05:00:46;;;;;;;0.40;0.20;;;13.10;99.90;;;;;;5089432;28;20390;-68
2022/05/15 05:03:12;;;;;;;0.50;0.50;;;13.10;99.90;;;;;;5088615;28;20473;-68
2022/05/15 05:05:38;;;;;;;0.40;0.30;;;13.20;99.90;;;;;;5089611;28;20393;-68
2022/05/15 05:08:05;;;;;;;0.40;0.20;;;13.20;99.90;;;;;;5089399;28;20405;-68
2022/05/15 05:10:31;;;;;;;1.60;0.50;;;13.20;99.90;;;;;;5089008;28;20420;-68
2022/05/15 05:12:56;;;;;;;0.40;0.40;;;13.30;99.90;;;;;;5088258;28;20949;-68
2022/05/15 05:15:22;;;;;;;0.40;0.30;;;13.30;99.90;;;;;;5089838;28;20746;-68
2022/05/15 05:17:48;;;;;;;0.40;0.20;;;13.50;99.90;;;;;;5089855;28;20390;-68
2022/05/15 05:20:14;;;;;;;1.10;0.70;;;13.50;99.90;;;;;;5089176;28;20789;-68
2022/05/15 05:22:41;;;;;;;0.40;0.20;;;13.60;99.90;;;;;;5094254;28;20434;-68
2022/05/15 05:25:07;;;;;;;0.40;0.30;;;13.70;99.90;;;;;;5093277;28;20396;-68
2022/05/15 05:27:36;;;;;;;0.40;0.20;;;13.70;99.90;;;;;;5093807;28;20847;-68
2022/05/15 05:30:02;;;;;;;0.40;0.20;;;13.70;99.90;;;;;;5092880;28;20389;-68
2022/05/15 05:32:28;;;;;;;0.40;0.20;;;13.80;99.90;;;;;;5092998;28;20543;-68
2022/05/15 05:34:53;;;;;;;0.40;0.20;;;13.80;99.90;;;;;;5093523;28;20464;-68
2022/05/15 05:37:19;;;;;;;0.40;0.20;;;13.90;99.90;;;;;;5093373;28;20393;-68
2022/05/15 05:39:45;;;;;;;0.40;0.20;;;13.90;99.90;;;;;;5094040;28;20397;-67
2022/05/15 05:42:10;;;;;;;0.40;0.40;;;13.90;99.90;;;;;;5093189;28;20401;-68
2022/05/15 05:44:36;;;;;;;0.40;0.20;;;14.00;99.90;;;;;;5093826;28;20494;-68
2022/05/15 05:47:02;;;;;;;0.40;0.30;;;14.10;99.90;;;;;;5092720;28;20860;-67
2022/05/15 05:49:29;;;;;;;0.40;0.40;;;14.10;99.90;;;;;;5092348;28;20421;-67
2022/05/15 05:51:54;;;;;;;0.40;0.20;;;14.20;99.90;;;;;;5074230;28;20805;-68
2022/05/15 05:54:20;;;;;;;0.70;0.60;;;14.20;99.90;;;;;;5093336;28;20393;-67
2022/05/15 05:56:46;;;;;;;0.40;0.20;;;14.30;99.90;;;;;;5074906;28;20394;-67
2022/05/15 05:59:12;;;;;;;0.40;0.20;;;14.40;99.90;;;;;;5092207;28;20409;-67
2022/05/15 06:01:37;;;;;;;0.40;0.20;;;14.50;99.90;;;;;;5092334;28;20470;-67
2022/05/15 06:06:47;;;;;;;0.40;0.20;;;14.50;99.90;;;;;;5092246;28;20389;-67
2022/05/15 06:09:13;;;;;;;0.40;0.20;;;14.60;99.90;;;;;;5092521;28;20469;-67
2022/05/15 06:11:38;;;;;;;0.40;0.30;;;14.70;99.90;;;;;;5092839;28;20501;-67
2022/05/15 06:14:04;;;;;;;0.40;0.30;;;14.80;99.90;;;;;;5091991;28;20482;-67
2022/05/15 06:16:32;;;;;;;0.40;0.30;;;15.00;99.90;;;;;;5092995;28;20394;-67
2022/05/15 06:18:58;;;;;;;0.40;0.30;;;15.00;99.90;;;;;;5091777;28;20401;-67
2022/05/15 06:21:24;;;;;;;0.40;0.20;;;15.10;99.90;;;;;;5074494;28;20401;-67
2022/05/15 06:23:50;;;;;;;0.40;0.40;;;15.20;99.90;;;;;;5092078;28;20800;-67
2022/05/15 06:26:16;;;;;;;0.40;0.30;;;15.40;99.90;;;;;;5091838;28;20396;-68
2022/05/15 06:28:42;;;;;;;0.40;0.20;;;15.70;99.90;;;;;;5092586;28;20469;-67
2022/05/15 06:31:07;;;;;;;0.40;0.20;;;15.90;99.90;;;;;;5085737;28;20806;-68
2022/05/15 06:33:33;;;;;;;0.40;0.20;;;15.90;99.90;;;;;;5091735;28;20804;-67
2022/05/15 06:35:59;;;;;;;0.50;0.40;;;16.10;99.90;;;;;;5091223;28;20382;-67
2022/05/15 06:38:25;;;;;;;0.40;0.40;;;16.20;99.90;;;;;;5092590;28;20904;-67
2022/05/15 06:40:51;;;;;;;0.40;0.20;;;16.40;99.90;;;;;;5092267;28;20397;-67
2022/05/15 06:43:17;;;;;;;0.40;0.20;;;16.50;99.90;;;;;;5091354;28;20409;-67
2022/05/15 06:45:43;;;;;;;0.40;0.20;;;16.50;99.90;;;;;;5092070;28;20390;-67
2022/05/15 06:48:09;;;;;;;0.40;0.25;;;16.50;99.90;;;;;;5090867;28;20873;-67
2022/05/15 06:50:35;;;;;;;0.40;0.20;;;16.60;99.90;;;;;;5091500;28;20409;-67
2022/05/15 06:53:01;;;;;;;0.70;0.60;;;16.70;99.90;;;;;;5090542;28;20394;-67
2022/05/15 06:55:27;;;;;;;0.40;0.20;;;16.80;99.90;;;;;;5091841;28;20409;-67
2022/05/15 06:57:52;;;;;;;0.40;0.20;;;16.90;99.90;;;;;;5092327;28;20385;-68
2022/05/15 07:00:21;;;;;;;5.40;1.40;;;17.00;99.90;;;;;;5091280;28;20979;-68
2022/05/15 07:02:48;;;;;;;0.43;0.40;;;17.00;99.90;;;;;;5091266;28;20545;-68
2022/05/15 07:05:20;;;;;;;0.40;0.20;;;16.90;99.90;;;;;;5090458;28;20460;-68
2022/05/15 07:07:46;;;;;;;0.40;0.20;;;17.00;99.90;;;;;;5091821;28;20389;-68
2022/05/15 07:10:12;;;;;;;0.40;0.25;;;17.20;99.90;;;;;;5090540;28;20958;-68
2022/05/15 07:12:38;;;;;;;0.40;0.23;;;17.20;99.90;;;;;;5091368;28;20414;-68
2022/05/15 07:15:05;;;;;;;0.40;0.30;;;17.20;99.90;;;;;;5090803;28;20406;-68
2022/05/15 07:17:31;;;;;;;0.40;0.20;;;17.20;99.90;;;;;;5090218;28;20947;-68
2022/05/15 07:19:57;;;;;;;0.40;0.20;;;17.40;99.90;;;;;;5091547;28;20436;-68
2022/05/15 07:22:23;;;;;;;0.40;0.20;;;17.40;99.90;;;;;;5091958;28;20394;-68
2022/05/15 07:24:49;;;;;;;3.60;0.60;;;17.60;99.90;;;;;;5091966;28;20475;-68
2022/05/15 07:27:15;;;;;;;0.40;0.30;;;17.70;99.90;;;;;;5090212;28;20491;-68
2022/05/15 07:29:43;;;;;;;0.40;0.30;;;17.90;99.90;;;;;;5092190;28;20390;-68
2022/05/15 07:32:10;;;;;;;0.50;0.47;;;17.90;99.90;;;;;;5090440;28;20860;-67
2022/05/15 07:34:40;;;;;;;0.40;0.30;;;17.90;99.90;;;;;;5091235;28;20390;-68
2022/05/15 07:37:06;;;;;;;0.60;0.50;;;17.90;99.90;;;;;;5071896;28;20398;-68
2022/05/15 07:39:32;;;;;;;0.40;0.30;;;18.00;99.90;;;;;;5092015;28;20393;-68
2022/05/15 07:41:58;;;;;;;0.40;0.30;;;18.10;99.90;;;;;;5091364;28;20462;-69
2022/05/15 07:44:25;;;;;;;0.40;0.40;;;18.20;99.90;;;;;;5089188;28;20426;-67
2022/05/15 07:46:51;;;;;;;0.40;0.20;;;18.30;99.90;;;;;;5090375;28;20394;-68
2022/05/15 07:49:16;;;;;;;0.40;0.20;;;18.30;99.90;;;;;;5090218;28;20480;-68
2022/05/15 07:51:44;;;;;;;0.40;0.20;;;18.30;99.90;;;;;;5090187;28;20485;-69
2022/05/15 07:54:15;;;;;;;0.40;0.20;;;18.30;99.90;;;;;;5090821;28;20758;-69
2022/05/15 07:56:41;;;;;;;0.40;0.20;;;18.30;99.90;;;;;;5091760;28;20481;-68
2022/05/15 07:59:07;;;;;;;0.40;0.30;;;18.40;99.90;;;;;;5090216;28;20397;-68
2022/05/15 08:01:34;;;;;;;0.40;0.30;;;18.40;99.90;;;;;;5082803;28;20750;-68
2022/05/15 08:04:00;;;;;;;0.40;0.30;;;18.60;99.90;;;;;;5090071;28;20426;-68
2022/05/15 08:09:11;;;;;;;0.40;0.30;;;18.70;98.20;;;;;;5074523;28;20507;-69
2022/05/15 08:11:36;;;;;;;0.40;0.20;;;18.50;98.70;;;;;;5086486;28;20434;-68
2022/05/15 08:14:05;;;;;;;0.40;0.20;;;18.60;98.40;;;;;;5077173;28;20434;-68
2022/05/15 08:16:35;;;;;;;1.60;0.60;;;18.60;99.40;;;;;;5082169;28;20394;-68
2022/05/15 08:24:30;;;;;;;0.40;0.20;;;18.90;99.10;;;;;;5087119;28;20400;-69
2022/05/15 08:26:56;;;;;;;0.40;0.30;;;18.90;98.40;;;;;;5090691;28;20912;-70
2022/05/15 08:29:22;;;;;;;0.40;0.30;;;18.90;99.40;;;;;;5086421;28;20571;-69
2022/05/15 08:31:48;;;;;;;0.40;0.20;;;19.00;98.10;;;;;;5088763;28;20420;-68
2022/05/15 08:34:14;;;;;;;0.40;0.30;;;19.00;97.90;;;;;;5084088;28;20735;-70
2022/05/15 08:36:42;;;;;;;0.40;0.20;;;19.00;97.80;;;;;;5085755;28;20386;-70
2022/05/15 08:39:08;;;;;;;0.40;0.20;;;19.10;97.60;;;;;;5061600;28;20489;-69
2022/05/15 08:41:43;;;;;;;0.40;0.20;;;19.20;97.40;;;;;;5077895;28;20419;-70
2022/05/15 08:44:22;;;;;;;0.40;0.30;;;19.10;97.40;;;;;;5073292;28;20412;-70
2022/05/15 08:46:51;;;;;;;0.40;0.20;;;19.20;97.80;;;;;;5084678;28;20508;-70
2022/05/15 08:49:32;;;;;;;0.40;0.20;;;19.20;97.20;;;;;;5080156;28;20794;-70
2022/05/15 08:52:10;;;;;;;1.80;0.80;;;19.20;97.90;;;;;;5073560;28;20405;-70
2022/05/15 08:54:44;;;;;;;0.40;0.20;;;19.20;97.30;;;;;;5087861;28;21128;-69
2022/05/15 08:57:21;;;;;;;0.40;0.30;;;19.60;97.00;;;;;;5081137;28;20944;-70
2022/05/15 08:59:55;;;;;;;0.40;0.30;;;19.60;97.30;;;;;;5086402;28;20394;-69
2022/05/15 09:02:23;;;;;;;0.40;0.20;;;19.50;97.00;;;;;;5089609;28;20803;-69
2022/05/15 09:04:51;;;;;;;0.60;0.60;;;19.70;95.80;;;;;;5090131;28;20723;-69
2022/05/15 09:07:16;;;;;;;0.40;0.20;;;19.70;96.70;;;;;;5089791;28;20758;-70
2022/05/15 09:09:42;;;;;;;0.40;0.20;;;19.70;95.90;;;;;;5090572;28;20378;-70
2022/05/15 09:12:21;;;;;;;0.40;0.30;;;19.80;94.80;;;;;;5089717;28;20410;-70
2022/05/15 09:15:00;;;;;;;0.40;0.30;;;19.80;95.10;;;;;;5087275;28;20414;-70
2022/05/15 09:17:32;;;;;;;0.40;0.40;;;19.90;96.10;;;;;;5081823;28;20846;-69
2022/05/15 09:20:26;;;;;;;0.40;0.30;;;20.10;94.60;;;;;;5090627;28;20394;-70
2022/05/15 09:23:13;;;;;;;0.40;0.30;;;20.10;93.90;;;;;;5053386;28;20393;-69
2022/05/15 09:25:42;;;;;;;0.40;0.20;;;20.40;93.90;;;;;;5090277;28;20818;-69
2022/05/15 09:28:14;;;;;;;0.40;0.28;;;20.40;93.60;;;;;;5088790;28;20459;-69
2022/05/15 09:30:47;;;;;;;0.40;0.30;;;20.50;93.20;;;;;;5084369;28;20505;-69
2022/05/15 09:33:26;;;;;;;0.40;0.30;;;20.60;92.30;;;;;;5087475;28;20473;-69
2022/05/15 09:36:12;;;;;;;0.40;0.30;;;20.70;92.60;;;;;;5082407;28;20437;-69
2022/05/15 09:38:38;;;;;;;0.40;0.20;;;20.80;91.40;;;;;;5076920;28;20672;-69
2022/05/15 09:43:56;;;;;;;0.40;0.20;;;20.90;92.60;;;;;;5075984;28;20475;-69
2022/05/15 09:46:25;;;;;;;0.40;0.30;;;20.90;92.00;;;;;;5083573;28;20535;-70
2022/05/15 09:49:00;;;;;;;0.70;0.70;;;20.90;91.70;;;;;;5080733;28;20744;-70
2022/05/15 09:51:54;;;;;;;0.40;0.30;;;20.90;91.30;;;;;;5080248;28;20403;-69
2022/05/15 09:54:37;;;;;;;0.40;0.30;;;20.90;92.40;;;;;;5074000;28;20402;-69
2022/05/15 09:57:17;;;;;;;0.40;0.20;;;21.10;91.50;;;;;;5057462;28;20423;-67
2022/05/15 10:00:05;;;;;;;0.40;0.30;;;21.20;91.90;;;;;;5082887;28;20443;-68
2022/05/15 10:02:42;;;;;;;1.70;1.60;;;21.20;92.60;;;;;;5086005;28;20390;-67
2022/05/15 10:05:18;;;;;;;0.40;0.30;;;21.30;92.20;;;;;;5080223;28;20439;-69
2022/05/15 10:08:03;;;;;;;0.40;0.20;;;21.40;92.20;;;;;;5092891;28;20443;-68
2022/05/15 10:10:45;;;;;;;0.60;0.60;;;21.60;92.70;;;;;;5084282;28;20417;-69
2022/05/15 10:13:14;;;;;;;0.40;0.20;;;21.60;92.80;;;;;;5081650;28;20427;-67
2022/05/15 10:15:45;;;;;;;0.40;0.20;;;21.60;92.60;;;;;;5082247;28;20859;-68
2022/05/15 10:18:27;;;;;;;0.40;0.30;;;21.60;92.20;;;;;;5092744;28;20386;-69
2022/05/15 10:20:54;;;;;;;0.40;0.30;;;22.10;92.50;;;;;;5090969;28;20386;-68
2022/05/15 10:23:30;;;;;;;0.40;0.30;;;22.10;93.50;;;;;;5091911;28;20394;-68
2022/05/15 10:26:17;;;;;;;0.65;0.35;;;22.20;91.10;;;;;;5093565;28;20378;-69
2022/05/15 10:29:05;;;;;;;0.70;0.70;;;22.30;90.50;;;;;;5093374;28;20473;-68
2022/05/15 10:31:38;;;;;;;0.40;0.40;;;22.40;90.90;;;;;;5092462;28;20514;-68
2022/05/15 10:34:11;;;;;;;0.40;0.20;;;22.30;91.30;;;;;;5093199;28;20551;-69
2022/05/15 10:37:14;;;;;;;0.40;0.20;;;22.50;90.60;;;;;;5093132;28;20855;-69
2022/05/15 10:40:06;;;;;;;0.40;0.30;;;22.60;90.60;;;;;;5073249;28;20388;-68
2022/05/15 10:42:58;;;;;;;0.50;0.40;;;22.50;90.00;;;;;;5088758;28;20954;-68
2022/05/15 10:45:36;;;;;;;0.40;0.20;;;22.70;90.50;;;;;;5092453;28;20406;-69
2022/05/15 10:48:17;;;;;;;0.40;0.30;;;22.90;90.10;;;;;;5093734;28;20397;-69
2022/05/15 10:50:55;;;;;;;0.40;0.20;;;22.90;88.70;;;;;;5092765;28;20438;-68
2022/05/15 10:59:45;;;;;;;0.40;0.20;;;23.20;86.60;;;;;;5091772;28;20394;-69
2022/05/15 11:02:24;;;;;;;0.40;0.28;;;23.30;85.60;;;;;;5092574;28;20378;-69
2022/05/15 11:05:00;;;;;;;0.40;0.30;;;23.30;88.20;;;;;;5092289;28;20524;-68
2022/05/15 11:07:31;;;;;;;0.60;0.60;;;23.50;84.80;;;;;;5091862;28;20386;-69
2022/05/15 11:10:08;;;;;;;0.40;0.20;;;23.50;83.30;;;;;;5092468;28;20398;-70
2022/05/15 11:13:00;;;;;;;0.40;0.30;;;23.50;83.50;;;;;;5091854;28;20421;-69
2022/05/15 11:15:56;;;;;;;0.40;0.30;;;23.50;86.50;;;;;;5091785;28;20382;-69
2022/05/15 11:18:35;;;;;;;0.40;0.30;;;24.00;81.90;;;;;;5090810;28;20414;-69
2022/05/15 11:21:07;;;;;;;0.80;0.80;;;24.10;80.70;;;;;;5092207;28;20393;-68
2022/05/15 11:23:45;;;;;;;0.40;0.20;;;24.40;78.90;;;;;;5092060;28;20408;-69
2022/05/15 11:26:22;;;;;;;0.40;0.30;;;24.60;79.40;;;;;;5072414;28;20387;-69
2022/05/15 11:28:58;;;;;;;0.40;0.20;;;25.00;79.20;;;;;;5088191;28;20900;-68
2022/05/15 11:31:30;;;;;;;0.40;0.30;;;25.50;77.70;;;;;;5091142;28;20493;-69
2022/05/15 11:34:05;;;;;;;0.60;0.57;;;25.70;76.20;;;;;;5092067;28;20426;-69
2022/05/15 11:36:35;;;;;;;0.40;0.20;;;26.00;72.10;;;;;;5091315;28;20447;-69
2022/05/15 11:39:13;;;;;;;0.40;0.20;;;27.00;70.50;;;;;;5091905;28;20480;-68
2022/05/15 11:41:38;;;;;;;0.40;0.20;;;27.60;67.60;;;;;;5091763;28;20414;-69
2022/05/15 11:44:18;;;;;;;0.40;0.30;;;28.00;66.50;;;;;;5092155;28;20754;-69
2022/05/15 11:46:50;;;;;;;0.50;0.50;;;28.40;65.10;;;;;;5091632;28;20997;-68
2022/05/15 11:49:26;;;;;;;0.40;0.20;;;28.30;64.00;;;;;;5090659;28;20406;-69
2022/05/15 11:52:05;;;;;;;0.40;0.20;;;28.70;62.20;;;;;;5091694;28;20489;-69
2022/05/15 11:54:37;;;;;;;0.40;0.20;;;29.00;63.70;;;;;;5090844;28;20900;-70
2022/05/15 11:57:13;;;;;;;0.40;0.30;;;29.10;59.80;;;;;;5091618;28;20434;-70
2022/05/15 11:59:59;;;;;;;0.40;0.30;;;28.90;62.10;;;;;;5090534;28;20390;-69
2022/05/15 12:02:31;;;;;;;0.40;0.20;;;28.90;62.00;;;;;;5090787;28;20483;-70
2022/05/15 12:05:09;;;;;;;0.45;0.43;;;28.80;60.00;;;;;;5091868;28;20386;-70
2022/05/15 12:08:07;;;;;;;0.40;0.20;;;28.60;61.10;;;;;;5090827;28;20737;-70
2022/05/15 12:10:35;;;;;;;0.40;0.20;;;28.90;60.70;;;;;;5090532;28;20838;-70
2022/05/15 12:13:07;;;;;;;0.40;0.20;;;30.00;59.70;;;;;;5091509;28;20447;-70
2022/05/15 12:15:45;;;;;;;0.40;0.20;;;30.70;57.10;;;;;;5090729;28;20425;-70
2022/05/15 12:18:26;;;;;;;0.40;0.30;;;30.30;58.70;;;;;;5091205;28;20413;-71
2022/05/15 12:20:53;;;;;;;0.40;0.20;;;30.40;59.80;;;;;;5079760;28;20394;-71
2022/05/15 12:23:22;;;;;;;0.40;0.20;;;30.10;56.90;;;;;;5082946;28;20510;-71
2022/05/15 12:25:56;;;;;;;0.40;0.20;;;30.20;60.10;;;;;;5083760;28;20412;-70
2022/05/15 12:28:52;;;;;;;0.40;0.20;;;30.60;55.70;;;;;;5077655;28;20394;-71
2022/05/15 12:31:41;;;;;;;0.40;0.20;;;30.10;55.30;;;;;;5081286;28;20406;-71
2022/05/15 12:34:13;;;;;;;0.40;0.20;;;30.90;57.20;;;;;;5090987;28;20890;-70
2022/05/15 12:36:43;;;;;;;0.40;0.20;;;30.90;56.00;;;;;;5089496;28;20922;-71
2022/05/15 12:39:15;;;;;;;0.40;0.20;;;30.20;56.90;;;;;;5080978;28;20428;-70
2022/05/15 12:41:45;;;;;;;0.40;0.20;;;31.30;54.90;;;;;;5082168;28;20393;-71
2022/05/15 12:44:12;;;;;;;0.40;0.20;;;29.70;54.20;;;;;;5090323;28;20428;-70
2022/05/15 12:46:58;;;;;;;0.50;0.40;;;29.70;56.20;;;;;;5080950;28;20477;-71
2022/05/15 12:49:39;;;;;;;0.50;0.50;;;28.90;59.00;;;;;;5088619;28;20480;-70
2022/05/15 12:52:13;;;;;;;0.40;0.30;;;29.10;58.70;;;;;;5090584;28;20493;-71
2022/05/15 12:54:40;;;;;;;0.40;0.30;;;27.40;61.00;;;;;;5069326;28;20399;-71
2022/05/15 12:57:10;;;;;;;0.40;0.25;;;28.50;68.50;;;;;;5084972;28;20404;-70
2022/05/15 12:59:43;;;;;;;0.40;0.30;;;29.30;58.50;;;;;;5089896;28;20418;-70
2022/05/15 13:02:37;;;;;;;0.40;0.30;;;28.30;57.20;;;;;;5090936;28;20386;-70
2022/05/15 13:05:24;;;;;;;0.40;0.20;;;28.00;59.30;;;;;;5070799;28;20852;-71
2022/05/15 13:07:59;;;;;;;0.40;0.20;;;28.60;57.50;;;;;;5090105;28;20394;-70
2022/05/15 13:10:26;;;;;;;0.40;0.20;;;29.10;58.90;;;;;;5089748;28;20742;-71
2022/05/15 13:13:10;;;;;;;0.40;0.30;;;29.20;60.20;;;;;;5090511;28;20728;-71
2022/05/15 13:15:37;;;;;;;0.40;0.20;;;28.80;61.70;;;;;;5090031;28;20911;-71
2022/05/15 13:18:06;;;;;;;0.40;0.20;;;29.40;56.00;;;;;;5090699;28;20386;-71
2022/05/15 13:20:38;;;;;;;0.40;0.30;;;28.80;57.00;;;;;;5089676;28;20392;-71
2022/05/15 13:23:05;;;;;;;0.40;0.30;;;29.60;59.50;;;;;;5091010;28;20405;-71
2022/05/15 13:25:36;;;;;;;0.40;0.20;;;29.80;60.10;;;;;;5089716;28;20394;-71